sensor_id;sensor_type;location;lat;lon;timestamp;pressure;altitude;pressure_sealevel;temperature;humidity
77120;BME280;66073;47.730;9.352;2023-04-24T00:00:07;95952.91;;;10.63;84.16
77120;BME280;66073;47.730;9.352;2023-04-24T00:02:36;95947.91;;;10.56;nan
77120;BME280;66073;47.730;9.352;2023-04-24T00:05:06;95942.28;;;10.25;84.77
77120;BME280;66073;47.730;9.352;2023-04-24T00:07:32;95936.84;;;10.12;86.23
77120;BME280;66073;47.730;9.352;2023-04-24T00:09:58;95942.66;;;10.19;86.54
77120;BME280;66073;47.730;9.352;2023-04-24T00:12:24;95941.53;;;10.01;86.32
77120;BME280;66073;47.730;9.352;2023-04-24T00:14:50;95943.66;;;10.23;86.32
77120;BME280;66073;47.730;9.352;2023-04-24T00:17:15;95933.75;;;10.42;85.71
77120;BME280;66073;47.730;9.352;2023-04-24T00:19:41;95941.75;;;10.42;85.41
77120;BME280;66073;47.730;9.352;2023-04-24T00:22:06;95936.00;;;9.98;86.58
77120;BME280;66073;47.730;9.352;2023-04-24T00:24:32;95930.81;;;9.87;87.58
77120;BME280;66073;47.730;9.352;2023-04-24T00:26:58;95921.63;;;9.75;88.33
77120;BME280;66073;47.730;9.352;2023-04-24T00:29:23;95927.91;;;9.65;88.28
77120;BME280;66073;47.730;9.352;2023-04-24T00:31:49;95928.03;;;9.55;88.34
77120;BME280;66073;47.730;9.352;2023-04-24T00:34:14;95930.16;;;9.53;88.66
77120;BME280;66073;47.730;9.352;2023-04-24T00:36:40;95934.22;;;9.51;88.82
77120;BME280;66073;47.730;9.352;2023-04-24T00:39:06;95930.69;;;9.55;88.71
77120;BME280;66073;47.730;9.352;2023-04-24T00:41:34;95933.09;;;9.75;88.41
77120;BME280;66073;47.730;9.352;2023-04-24T00:44:00;95946.47;;;9.70;87.94
77120;BME280;66073;47.730;9.352;2023-04-24T00:46:25;95935.13;;;9.83;88.10
77120;BME280;66073;47.730;9.352;2023-04-24T00:48:51;95932.69;;;10.06;87.18
77120;BME280;66073;47.730;9.352;2023-04-24T00:51:18;95927.66;;;10.23;86.55
77120;BME280;66073;47.730;9.352;2023-04-24T00:53:44;95931.41;;;10.22;86.36
77120;BME280;66073;47.730;9.352;2023-04-24T00:56:09;95929.75;;;10.26;86.36
77120;BME280;66073;47.730;9.352;2023-04-24T00:58:35;95926.34;;;10.02;86.50
77120;BME280;66073;47.730;9.352;2023-04-24T01:01:02;95925.22;;;10.03;86.69
77120;BME280;66073;47.730;9.352;2023-04-24T01:03:33;95924.84;;;10.14;86.51
77120;BME280;66073;47.730;9.352;2023-04-24T01:05:58;95927.22;;;10.16;86.50
77120;BME280;66073;47.730;9.352;2023-04-24T01:08:24;95932.78;;;10.19;85.78
77120;BME280;66073;47.730;9.352;2023-04-24T01:10:52;95920.41;;;9.86;86.56
77120;BME280;66073;47.730;9.352;2023-04-24T01:13:18;95920.16;;;9.87;86.90
77120;BME280;66073;47.730;9.352;2023-04-24T01:15:45;95928.47;;;10.00;87.07
77120;BME280;66073;47.730;9.352;2023-04-24T01:18:11;95923.31;;;9.89;87.12
77120;BME280;66073;47.730;9.352;2023-04-24T01:20:39;95922.88;;;10.01;86.91
77120;BME280;66073;47.730;9.352;2023-04-24T01:23:07;95928.53;;;10.13;86.43
77120;BME280;66073;47.730;9.352;2023-04-24T01:25:33;95930.28;;;10.04;86.37
77120;BME280;66073;47.730;9.352;2023-04-24T01:27:59;95929.44;;;10.27;85.23
77120;BME280;66073;47.730;9.352;2023-04-24T01:30:26;95919.97;;;10.35;85.09
77120;BME280;66073;47.730;9.352;2023-04-24T01:32:52;95931.47;;;10.17;84.72
77120;BME280;66073;47.730;9.352;2023-04-24T01:35:19;95922.38;;;10.18;83.21
77120;BME280;66073;47.730;9.352;2023-04-24T01:37:45;95923.59;;;10.07;83.98
77120;BME280;66073;47.730;9.352;2023-04-24T01:40:11;95909.63;;;10.15;83.47
77120;BME280;66073;47.730;9.352;2023-04-24T01:42:37;95917.44;;;10.06;83.22
77120;BME280;66073;47.730;9.352;2023-04-24T01:45:04;95912.28;;;9.96;82.91
77120;BME280;66073;47.730;9.352;2023-04-24T01:47:31;95912.34;;;10.10;83.28
77120;BME280;66073;47.730;9.352;2023-04-24T01:49:57;95910.56;;;10.05;82.58
77120;BME280;66073;47.730;9.352;2023-04-24T01:52:23;95912.69;;;10.03;82.31
77120;BME280;66073;47.730;9.352;2023-04-24T01:54:49;95908.31;;;9.75;82.82
77120;BME280;66073;47.730;9.352;2023-04-24T01:57:16;95909.47;;;9.87;83.53
77120;BME280;66073;47.730;9.352;2023-04-24T01:59:41;95914.09;;;10.01;83.63
77120;BME280;66073;47.730;9.352;2023-04-24T02:02:07;95913.00;;;9.83;83.54
77120;BME280;66073;47.730;9.352;2023-04-24T02:04:32;95912.16;;;9.87;82.89
77120;BME280;66073;47.730;9.352;2023-04-24T02:06:58;95910.78;;;9.90;82.27
77120;BME280;66073;47.730;9.352;2023-04-24T02:09:24;95908.31;;;9.93;80.80
77120;BME280;66073;47.730;9.352;2023-04-24T02:11:50;95921.72;;;9.88;81.30
77120;BME280;66073;47.730;9.352;2023-04-24T02:14:15;95924.59;;;9.73;81.56
77120;BME280;66073;47.730;9.352;2023-04-24T02:16:41;95919.41;;;9.82;81.71
77120;BME280;66073;47.730;9.352;2023-04-24T02:19:06;95922.88;;;9.82;82.55
77120;BME280;66073;47.730;9.352;2023-04-24T02:21:32;95921.94;;;9.73;82.42
77120;BME280;66073;47.730;9.352;2023-04-24T02:23:58;95927.56;;;9.90;82.58
77120;BME280;66073;47.730;9.352;2023-04-24T02:26:23;95932.38;;;9.70;81.89
77120;BME280;66073;47.730;9.352;2023-04-24T02:28:48;95929.69;;;9.88;81.31
77120;BME280;66073;47.730;9.352;2023-04-24T02:31:14;95927.41;;;9.82;81.29
77120;BME280;66073;47.730;9.352;2023-04-24T02:33:40;95927.03;;;9.88;81.38
77120;BME280;66073;47.730;9.352;2023-04-24T02:36:05;95925.84;;;9.81;81.63
77120;BME280;66073;47.730;9.352;2023-04-24T02:38:31;95926.91;;;9.99;81.61
77120;BME280;66073;47.730;9.352;2023-04-24T02:40:56;95924.53;;;9.97;81.03
77120;BME280;66073;47.730;9.352;2023-04-24T02:43:22;95921.59;;;9.99;80.92
77120;BME280;66073;47.730;9.352;2023-04-24T02:45:47;95921.28;;;9.81;81.76
77120;BME280;66073;47.730;9.352;2023-04-24T02:48:13;95925.28;;;9.60;82.72
77120;BME280;66073;47.730;9.352;2023-04-24T02:50:38;95926.44;;;9.54;82.78
77120;BME280;66073;47.730;9.352;2023-04-24T02:53:04;95924.16;;;9.66;82.83
77120;BME280;66073;47.730;9.352;2023-04-24T02:55:30;95926.31;;;9.64;82.28
77120;BME280;66073;47.730;9.352;2023-04-24T02:57:55;95923.66;;;9.83;82.40
77120;BME280;66073;47.730;9.352;2023-04-24T03:00:21;95927.97;;;9.79;83.21
77120;BME280;66073;47.730;9.352;2023-04-24T03:02:46;95930.94;;;9.77;82.27
77120;BME280;66073;47.730;9.352;2023-04-24T03:05:12;95920.53;;;9.57;82.61
77120;BME280;66073;47.730;9.352;2023-04-24T03:07:37;95924.53;;;9.97;81.57
77120;BME280;66073;47.730;9.352;2023-04-24T03:10:04;95922.50;;;9.89;82.43
77120;BME280;66073;47.730;9.352;2023-04-24T03:12:31;95912.94;;;9.69;82.18
77120;BME280;66073;47.730;9.352;2023-04-24T03:14:56;95923.00;;;9.72;82.02
77120;BME280;66073;47.730;9.352;2023-04-24T03:17:22;95921.50;;;9.66;82.25
77120;BME280;66073;47.730;9.352;2023-04-24T03:19:47;95917.06;;;9.57;81.94
77120;BME280;66073;47.730;9.352;2023-04-24T03:22:13;95924.38;;;9.70;82.91
77120;BME280;66073;47.730;9.352;2023-04-24T03:24:39;95915.28;;;9.52;80.94
77120;BME280;66073;47.730;9.352;2023-04-24T03:27:05;95918.75;;;9.90;80.34
77120;BME280;66073;47.730;9.352;2023-04-24T03:29:30;95909.38;;;9.74;81.75
77120;BME280;66073;47.730;9.352;2023-04-24T03:31:56;95912.03;;;9.55;81.55
77120;BME280;66073;47.730;9.352;2023-04-24T03:34:21;95911.34;;;9.68;81.07
77120;BME280;66073;47.730;9.352;2023-04-24T03:36:47;95919.66;;;9.43;82.35
77120;BME280;66073;47.730;9.352;2023-04-24T03:39:13;95924.91;;;9.48;81.74
77120;BME280;66073;47.730;9.352;2023-04-24T03:41:39;95926.34;;;9.40;81.06
77120;BME280;66073;47.730;9.352;2023-04-24T03:44:04;95924.06;;;9.29;82.05
77120;BME280;66073;47.730;9.352;2023-04-24T03:46:29;95921.69;;;9.51;81.70
77120;BME280;66073;47.730;9.352;2023-04-24T03:48:55;95926.88;;;9.61;80.06
77120;BME280;66073;47.730;9.352;2023-04-24T03:51:20;95935.88;;;9.23;80.31
77120;BME280;66073;47.730;9.352;2023-04-24T03:53:47;95929.13;;;9.30;80.82
77120;BME280;66073;47.730;9.352;2023-04-24T03:56:12;95944.91;;;9.22;81.66
77120;BME280;66073;47.730;9.352;2023-04-24T03:58:38;95939.31;;;9.23;81.27
77120;BME280;66073;47.730;9.352;2023-04-24T04:01:03;95934.47;;;9.49;80.03
77120;BME280;66073;47.730;9.352;2023-04-24T04:03:28;95929.84;;;9.36;80.04
77120;BME280;66073;47.730;9.352;2023-04-24T04:05:54;95942.88;;;9.14;81.05
77120;BME280;66073;47.730;9.352;2023-04-24T04:08:20;95932.06;;;9.29;79.86
77120;BME280;66073;47.730;9.352;2023-04-24T04:10:45;95940.16;;;9.19;80.46
77120;BME280;66073;47.730;9.352;2023-04-24T04:13:11;95932.50;;;9.36;80.75
77120;BME280;66073;47.730;9.352;2023-04-24T04:15:36;95940.81;;;9.53;79.35
77120;BME280;66073;47.730;9.352;2023-04-24T04:18:02;95946.81;;;9.45;79.81
77120;BME280;66073;47.730;9.352;2023-04-24T04:20:27;95935.19;;;9.36;79.85
77120;BME280;66073;47.730;9.352;2023-04-24T04:22:53;95938.91;;;9.35;78.99
77120;BME280;66073;47.730;9.352;2023-04-24T04:25:18;95953.47;;;9.19;79.22
77120;BME280;66073;47.730;9.352;2023-04-24T04:27:46;95944.19;;;9.16;79.17
77120;BME280;66073;47.730;9.352;2023-04-24T04:30:13;95936.06;;;9.50;78.75
77120;BME280;66073;47.730;9.352;2023-04-24T04:32:39;95944.69;;;9.42;78.89
77120;BME280;66073;47.730;9.352;2023-04-24T04:35:06;95944.22;;;9.35;78.47
77120;BME280;66073;47.730;9.352;2023-04-24T04:37:33;95950.69;;;9.53;78.99
77120;BME280;66073;47.730;9.352;2023-04-24T04:39:59;95950.47;;;9.49;79.06
77120;BME280;66073;47.730;9.352;2023-04-24T04:42:25;95940.25;;;9.56;79.16
77120;BME280;66073;47.730;9.352;2023-04-24T04:44:52;95947.00;;;9.91;76.55
77120;BME280;66073;47.730;9.352;2023-04-24T04:47:21;95952.59;;;9.52;78.44
77120;BME280;66073;47.730;9.352;2023-04-24T04:49:50;95962.72;;;9.50;79.33
77120;BME280;66073;47.730;9.352;2023-04-24T04:52:19;95963.72;;;9.54;78.77
77120;BME280;66073;47.730;9.352;2023-04-24T04:54:44;95965.66;;;9.25;79.20
77120;BME280;66073;47.730;9.352;2023-04-24T04:57:11;95969.66;;;9.27;79.79
77120;BME280;66073;47.730;9.352;2023-04-24T04:59:37;95973.59;;;9.54;78.86
77120;BME280;66073;47.730;9.352;2023-04-24T05:02:03;95973.81;;;9.57;78.25
77120;BME280;66073;47.730;9.352;2023-04-24T05:04:28;95975.84;;;9.65;78.15
77120;BME280;66073;47.730;9.352;2023-04-24T05:06:54;95975.16;;;9.78;77.38
77120;BME280;66073;47.730;9.352;2023-04-24T05:09:19;95983.22;;;9.73;79.04
77120;BME280;66073;47.730;9.352;2023-04-24T05:11:45;95988.78;;;9.53;80.16
77120;BME280;66073;47.730;9.352;2023-04-24T05:14:13;95994.19;;;9.90;79.39
77120;BME280;66073;47.730;9.352;2023-04-24T05:16:39;95998.25;;;10.07;77.07
77120;BME280;66073;47.730;9.352;2023-04-24T05:19:06;96015.28;;;9.63;79.34
77120;BME280;66073;47.730;9.352;2023-04-24T05:21:32;96012.38;;;9.65;79.76
77120;BME280;66073;47.730;9.352;2023-04-24T05:23:57;96004.16;;;10.04;78.66
77120;BME280;66073;47.730;9.352;2023-04-24T05:26:23;96006.47;;;9.91;79.70
77120;BME280;66073;47.730;9.352;2023-04-24T05:28:49;96020.63;;;9.63;80.10
77120;BME280;66073;47.730;9.352;2023-04-24T05:31:16;96027.09;;;9.57;81.31
77120;BME280;66073;47.730;9.352;2023-04-24T05:33:43;96018.41;;;9.23;80.71
77120;BME280;66073;47.730;9.352;2023-04-24T05:36:08;96034.50;;;9.13;81.82
77120;BME280;66073;47.730;9.352;2023-04-24T05:38:33;96022.91;;;8.99;82.09
77120;BME280;66073;47.730;9.352;2023-04-24T05:40:59;96017.09;;;8.91;81.93
77120;BME280;66073;47.730;9.352;2023-04-24T05:43:24;96027.38;;;9.03;81.40
77120;BME280;66073;47.730;9.352;2023-04-24T05:45:51;96025.00;;;9.02;81.15
77120;BME280;66073;47.730;9.352;2023-04-24T05:48:19;96034.09;;;8.95;80.88
77120;BME280;66073;47.730;9.352;2023-04-24T05:50:44;96041.56;;;8.93;81.33
77120;BME280;66073;47.730;9.352;2023-04-24T05:53:10;96038.91;;;8.93;82.03
77120;BME280;66073;47.730;9.352;2023-04-24T05:55:36;96046.94;;;9.17;82.09
77120;BME280;66073;47.730;9.352;2023-04-24T05:58:02;96039.94;;;8.98;81.65
77120;BME280;66073;47.730;9.352;2023-04-24T06:00:27;96039.84;;;9.08;80.81
77120;BME280;66073;47.730;9.352;2023-04-24T06:02:53;96054.31;;;9.25;81.09
77120;BME280;66073;47.730;9.352;2023-04-24T06:05:19;96050.13;;;9.48;79.45
77120;BME280;66073;47.730;9.352;2023-04-24T06:07:45;96051.06;;;9.57;79.10
77120;BME280;66073;47.730;9.352;2023-04-24T06:10:11;96039.81;;;9.41;77.76
77120;BME280;66073;47.730;9.352;2023-04-24T06:12:36;96046.16;;;9.69;78.55
77120;BME280;66073;47.730;9.352;2023-04-24T06:15:03;96048.09;;;9.87;77.69
77120;BME280;66073;47.730;9.352;2023-04-24T06:17:30;96052.88;;;9.85;77.69
77120;BME280;66073;47.730;9.352;2023-04-24T06:19:56;96057.50;;;9.80;77.65
77120;BME280;66073;47.730;9.352;2023-04-24T06:22:21;96054.66;;;9.95;76.82
77120;BME280;66073;47.730;9.352;2023-04-24T06:24:46;96053.06;;;9.94;76.74
77120;BME280;66073;47.730;9.352;2023-04-24T06:27:14;96051.66;;;10.02;75.86
77120;BME280;66073;47.730;9.352;2023-04-24T06:29:39;96055.16;;;9.97;76.27
77120;BME280;66073;47.730;9.352;2023-04-24T06:32:05;96049.31;;;10.19;74.49
77120;BME280;66073;47.730;9.352;2023-04-24T06:34:30;96052.22;;;9.99;75.80
77120;BME280;66073;47.730;9.352;2023-04-24T06:36:58;96062.69;;;10.14;76.77
77120;BME280;66073;47.730;9.352;2023-04-24T06:39:23;96064.03;;;10.35;75.54
77120;BME280;66073;47.730;9.352;2023-04-24T06:41:49;96062.94;;;10.17;76.47
77120;BME280;66073;47.730;9.352;2023-04-24T06:44:16;96065.09;;;9.91;76.18
77120;BME280;66073;47.730;9.352;2023-04-24T06:46:43;96073.03;;;9.96;77.44
77120;BME280;66073;47.730;9.352;2023-04-24T06:49:08;96086.69;;;9.66;76.20
77120;BME280;66073;47.730;9.352;2023-04-24T06:51:34;96075.56;;;10.07;75.47
77120;BME280;66073;47.730;9.352;2023-04-24T06:53:59;96084.13;;;10.27;76.65
77120;BME280;66073;47.730;9.352;2023-04-24T06:56:25;96089.69;;;10.31;75.42
77120;BME280;66073;47.730;9.352;2023-04-24T06:58:51;96096.84;;;10.12;76.05
77120;BME280;66073;47.730;9.352;2023-04-24T07:01:17;96086.69;;;10.14;74.78
77120;BME280;66073;47.730;9.352;2023-04-24T07:03:42;96095.38;;;10.01;75.69
77120;BME280;66073;47.730;9.352;2023-04-24T07:06:09;96094.47;;;10.34;75.25
77120;BME280;66073;47.730;9.352;2023-04-24T07:08:38;96102.94;;;10.17;75.48
77120;BME280;66073;47.730;9.352;2023-04-24T07:11:04;96093.25;;;10.45;73.63
77120;BME280;66073;47.730;9.352;2023-04-24T07:13:29;96099.28;;;10.88;72.60
77120;BME280;66073;47.730;9.352;2023-04-24T07:15:55;96110.56;;;10.85;70.52
77120;BME280;66073;47.730;9.352;2023-04-24T07:18:22;96104.72;;;10.83;71.25
77120;BME280;66073;47.730;9.352;2023-04-24T07:20:48;96099.66;;;10.81;71.32
77120;BME280;66073;47.730;9.352;2023-04-24T07:23:17;96095.84;;;10.69;70.65
77120;BME280;66073;47.730;9.352;2023-04-24T07:25:43;96111.06;;;11.06;69.64
77120;BME280;66073;47.730;9.352;2023-04-24T07:28:09;96108.91;;;10.70;70.83
77120;BME280;66073;47.730;9.352;2023-04-24T07:30:35;96113.38;;;10.93;69.72
77120;BME280;66073;47.730;9.352;2023-04-24T07:33:01;96114.59;;;11.01;69.23
77120;BME280;66073;47.730;9.352;2023-04-24T07:35:27;96112.81;;;11.29;67.37
77120;BME280;66073;47.730;9.352;2023-04-24T07:37:53;96114.88;;;11.00;67.52
77120;BME280;66073;47.730;9.352;2023-04-24T07:40:18;96113.41;;;11.26;67.42
77120;BME280;66073;47.730;9.352;2023-04-24T07:42:44;96131.25;;;11.30;67.85
77120;BME280;66073;47.730;9.352;2023-04-24T07:45:10;96108.25;;;11.48;67.34
77120;BME280;66073;47.730;9.352;2023-04-24T07:47:36;96111.81;;;11.57;65.67
77120;BME280;66073;47.730;9.352;2023-04-24T07:50:03;96115.84;;;11.41;65.31
77120;BME280;66073;47.730;9.352;2023-04-24T07:52:28;96113.88;;;12.06;65.29
77120;BME280;66073;47.730;9.352;2023-04-24T07:54:54;96107.34;;;11.99;63.82
77120;BME280;66073;47.730;9.352;2023-04-24T07:57:24;96111.13;;;12.25;65.16
77120;BME280;66073;47.730;9.352;2023-04-24T07:59:50;96111.00;;;12.03;65.34
77120;BME280;66073;47.730;9.352;2023-04-24T08:02:15;96122.22;;;11.26;64.48
77120;BME280;66073;47.730;9.352;2023-04-24T08:04:41;96111.66;;;11.35;65.33
77120;BME280;66073;47.730;9.352;2023-04-24T08:07:06;96121.84;;;11.33;66.02
77120;BME280;66073;47.730;9.352;2023-04-24T08:09:33;96124.94;;;11.72;64.52
77120;BME280;66073;47.730;9.352;2023-04-24T08:11:58;96125.56;;;11.97;62.87
77120;BME280;66073;47.730;9.352;2023-04-24T08:14:24;96120.59;;;11.76;63.73
77120;BME280;66073;47.730;9.352;2023-04-24T08:16:49;96125.34;;;11.79;62.95
77120;BME280;66073;47.730;9.352;2023-04-24T08:19:15;96121.97;;;11.74;64.07
77120;BME280;66073;47.730;9.352;2023-04-24T08:21:40;96131.91;;;11.73;64.02
77120;BME280;66073;47.730;9.352;2023-04-24T08:24:07;96144.19;;;11.23;64.05
77120;BME280;66073;47.730;9.352;2023-04-24T08:26:33;96135.13;;;11.06;64.55
77120;BME280;66073;47.730;9.352;2023-04-24T08:28:58;96132.19;;;11.21;64.17
77120;BME280;66073;47.730;9.352;2023-04-24T08:31:24;96134.16;;;10.97;65.04
77120;BME280;66073;47.730;9.352;2023-04-24T08:33:50;96145.72;;;10.73;64.50
77120;BME280;66073;47.730;9.352;2023-04-24T08:36:15;96140.78;;;11.18;63.82
77120;BME280;66073;47.730;9.352;2023-04-24T08:38:42;96152.75;;;11.39;63.34
77120;BME280;66073;47.730;9.352;2023-04-24T08:41:09;96163.06;;;11.45;63.28
77120;BME280;66073;47.730;9.352;2023-04-24T08:43:35;96163.31;;;11.63;62.24
77120;BME280;66073;47.730;9.352;2023-04-24T08:46:03;96160.81;;;11.85;60.84
77120;BME280;66073;47.730;9.352;2023-04-24T08:48:29;96157.88;;;11.35;61.62
77120;BME280;66073;47.730;9.352;2023-04-24T08:50:56;96164.88;;;11.64;61.34
77120;BME280;66073;47.730;9.352;2023-04-24T08:53:24;96171.63;;;11.80;59.16
77120;BME280;66073;47.730;9.352;2023-04-24T08:55:51;96167.94;;;11.57;59.30
77120;BME280;66073;47.730;9.352;2023-04-24T08:58:17;96167.19;;;12.03;59.46
77120;BME280;66073;47.730;9.352;2023-04-24T09:00:46;96167.88;;;11.62;59.87
77120;BME280;66073;47.730;9.352;2023-04-24T09:03:15;96177.47;;;11.96;59.35
77120;BME280;66073;47.730;9.352;2023-04-24T09:05:43;96177.72;;;12.40;59.15
77120;BME280;66073;47.730;9.352;2023-04-24T09:08:13;96173.84;;;12.73;55.80
77120;BME280;66073;47.730;9.352;2023-04-24T09:10:40;96181.38;;;12.44;57.40
77120;BME280;66073;47.730;9.352;2023-04-24T09:13:05;96173.34;;;12.44;55.63
77120;BME280;66073;47.730;9.352;2023-04-24T09:15:34;96175.44;;;11.74;55.49
77120;BME280;66073;47.730;9.352;2023-04-24T09:18:00;96171.28;;;12.41;55.46
77120;BME280;66073;47.730;9.352;2023-04-24T09:20:26;96176.31;;;12.02;55.41
77120;BME280;66073;47.730;9.352;2023-04-24T09:22:57;96185.22;;;11.97;58.70
77120;BME280;66073;47.730;9.352;2023-04-24T09:25:30;96182.25;;;12.53;56.31
77120;BME280;66073;47.730;9.352;2023-04-24T09:28:00;96174.66;;;12.47;57.30
77120;BME280;66073;47.730;9.352;2023-04-24T09:30:26;96183.66;;;12.37;57.02
77120;BME280;66073;47.730;9.352;2023-04-24T09:33:15;96177.50;;;12.50;55.25
77120;BME280;66073;47.730;9.352;2023-04-24T09:35:51;96190.34;;;13.03;55.32
77120;BME280;66073;47.730;9.352;2023-04-24T09:38:17;96177.81;;;13.25;54.04
77120;BME280;66073;47.730;9.352;2023-04-24T09:40:43;96177.75;;;12.89;56.07
77120;BME280;66073;47.730;9.352;2023-04-24T09:43:11;96191.97;;;12.35;56.60
77120;BME280;66073;47.730;9.352;2023-04-24T09:45:40;96186.22;;;12.56;55.12
77120;BME280;66073;47.730;9.352;2023-04-24T09:48:09;96193.53;;;12.77;55.82
77120;BME280;66073;47.730;9.352;2023-04-24T09:50:35;96183.47;;;12.20;56.06
77120;BME280;66073;47.730;9.352;2023-04-24T09:53:05;96195.31;;;12.00;56.44
77120;BME280;66073;47.730;9.352;2023-04-24T09:55:39;96185.94;;;12.57;55.07
77120;BME280;66073;47.730;9.352;2023-04-24T09:58:07;96188.56;;;12.84;54.21
77120;BME280;66073;47.730;9.352;2023-04-24T10:00:33;96190.97;;;12.18;55.27
77120;BME280;66073;47.730;9.352;2023-04-24T10:03:02;96191.00;;;12.72;54.26
77120;BME280;66073;47.730;9.352;2023-04-24T10:05:34;96184.22;;;12.88;53.21
77120;BME280;66073;47.730;9.352;2023-04-24T10:08:08;96193.16;;;12.70;52.48
77120;BME280;66073;47.730;9.352;2023-04-24T10:10:45;96180.94;;;13.41;52.12
77120;BME280;66073;47.730;9.352;2023-04-24T10:13:12;96185.41;;;12.82;51.65
77120;BME280;66073;47.730;9.352;2023-04-24T10:15:40;96177.19;;;13.28;50.48
77120;BME280;66073;47.730;9.352;2023-04-24T10:18:08;96188.94;;;13.19;49.82
77120;BME280;66073;47.730;9.352;2023-04-24T10:20:36;96186.28;;;13.85;49.52
77120;BME280;66073;47.730;9.352;2023-04-24T10:23:03;96198.16;;;13.71;48.52
77120;BME280;66073;47.730;9.352;2023-04-24T10:25:31;96189.06;;;14.03;50.36
77120;BME280;66073;47.730;9.352;2023-04-24T10:27:58;96183.47;;;13.90;47.36
77120;BME280;66073;47.730;9.352;2023-04-24T10:30:32;96203.44;;;14.68;48.10
77120;BME280;66073;47.730;9.352;2023-04-24T10:33:02;96205.03;;;14.69;46.39
77120;BME280;66073;47.730;9.352;2023-04-24T10:35:34;96195.91;;;13.64;46.78
77120;BME280;66073;47.730;9.352;2023-04-24T10:38:27;96216.81;;;13.54;46.86
77120;BME280;66073;47.730;9.352;2023-04-24T10:41:09;96225.41;;;13.42;47.40
77120;BME280;66073;47.730;9.352;2023-04-24T10:43:41;96220.53;;;12.81;45.92
77120;BME280;66073;47.730;9.352;2023-04-24T10:46:08;96230.84;;;12.60;47.83
77120;BME280;66073;47.730;9.352;2023-04-24T10:48:36;96233.94;;;12.67;47.89
77120;BME280;66073;47.730;9.352;2023-04-24T10:51:11;96219.94;;;12.57;47.26
77120;BME280;66073;47.730;9.352;2023-04-24T10:53:38;96227.69;;;12.45;47.70
77120;BME280;66073;47.730;9.352;2023-04-24T10:56:06;96222.72;;;12.65;47.55
77120;BME280;66073;47.730;9.352;2023-04-24T10:58:40;96231.56;;;12.79;47.85
77120;BME280;66073;47.730;9.352;2023-04-24T11:01:08;96237.19;;;12.78;47.72
77120;BME280;66073;47.730;9.352;2023-04-24T11:03:35;96232.75;;;13.72;47.01
77120;BME280;66073;47.730;9.352;2023-04-24T11:06:04;96228.47;;;12.86;47.46
77120;BME280;66073;47.730;9.352;2023-04-24T11:08:39;96228.84;;;12.52;47.74
77120;BME280;66073;47.730;9.352;2023-04-24T11:11:15;96233.00;;;13.13;48.40
77120;BME280;66073;47.730;9.352;2023-04-24T11:16:31;96213.34;;;13.98;44.54
77120;BME280;66073;47.730;9.352;2023-04-24T11:19:22;96213.50;;;13.34;46.13
77120;BME280;66073;47.730;9.352;2023-04-24T11:22:01;96208.78;;;13.76;44.49
77120;BME280;66073;47.730;9.352;2023-04-24T11:24:38;96210.78;;;13.93;43.93
77120;BME280;66073;47.730;9.352;2023-04-24T11:27:14;96207.81;;;13.94;43.72
77120;BME280;66073;47.730;9.352;2023-04-24T11:32:28;96219.31;;;14.96;43.41
77120;BME280;66073;47.730;9.352;2023-04-24T11:35:00;96211.47;;;15.59;42.33
77120;BME280;66073;47.730;9.352;2023-04-24T11:37:29;96225.03;;;15.20;43.00
77120;BME280;66073;47.730;9.352;2023-04-24T11:39:58;96218.19;;;14.49;43.88
77120;BME280;66073;47.730;9.352;2023-04-24T11:42:24;96232.44;;;14.27;43.36
77120;BME280;66073;47.730;9.352;2023-04-24T11:44:55;96233.34;;;13.69;43.61
77120;BME280;66073;47.730;9.352;2023-04-24T11:47:31;96231.09;;;13.85;43.31
77120;BME280;66073;47.730;9.352;2023-04-24T11:49:59;96235.34;;;14.08;45.27
77120;BME280;66073;47.730;9.352;2023-04-24T11:52:26;96234.38;;;13.60;44.89
77120;BME280;66073;47.730;9.352;2023-04-24T11:54:52;96241.47;;;13.42;45.60
77120;BME280;66073;47.730;9.352;2023-04-24T11:57:24;96239.16;;;13.00;45.58
77120;BME280;66073;47.730;9.352;2023-04-24T11:59:53;96243.56;;;12.55;45.94
77120;BME280;66073;47.730;9.352;2023-04-24T12:04:47;96239.34;;;14.81;46.39
77120;BME280;66073;47.730;9.352;2023-04-24T12:07:12;96235.66;;;14.68;44.19
77120;BME280;66073;47.730;9.352;2023-04-24T12:09:42;96240.19;;;14.28;43.54
77120;BME280;66073;47.730;9.352;2023-04-24T12:12:08;96240.13;;;14.81;43.51
77120;BME280;66073;47.730;9.352;2023-04-24T12:14:55;96237.50;;;14.59;43.23
77120;BME280;66073;47.730;9.352;2023-04-24T12:17:31;96241.66;;;14.34;43.19
77120;BME280;66073;47.730;9.352;2023-04-24T12:20:00;96251.50;;;14.78;44.46
77120;BME280;66073;47.730;9.352;2023-04-24T12:22:26;96253.81;;;14.63;44.22
77120;BME280;66073;47.730;9.352;2023-04-24T12:25:01;96252.47;;;14.91;41.94
77120;BME280;66073;47.730;9.352;2023-04-24T12:27:32;96259.34;;;14.66;43.16
77120;BME280;66073;47.730;9.352;2023-04-24T12:30:03;96253.56;;;14.42;43.18
77120;BME280;66073;47.730;9.352;2023-04-24T12:32:29;96263.16;;;14.65;43.39
77120;BME280;66073;47.730;9.352;2023-04-24T12:34:55;96264.44;;;15.24;42.64
77120;BME280;66073;47.730;9.352;2023-04-24T12:37:32;96267.22;;;14.54;43.48
77120;BME280;66073;47.730;9.352;2023-04-24T12:40:11;96248.16;;;15.38;42.27
77120;BME280;66073;47.730;9.352;2023-04-24T12:42:49;96267.13;;;15.16;42.39
77120;BME280;66073;47.730;9.352;2023-04-24T12:45:16;96245.16;;;14.74;43.34
77120;BME280;66073;47.730;9.352;2023-04-24T12:47:43;96249.69;;;15.05;42.66
77120;BME280;66073;47.730;9.352;2023-04-24T12:50:11;96244.28;;;14.48;43.21
77120;BME280;66073;47.730;9.352;2023-04-24T12:52:38;96250.75;;;14.47;43.56
77120;BME280;66073;47.730;9.352;2023-04-24T12:55:05;96239.56;;;13.78;44.83
77120;BME280;66073;47.730;9.352;2023-04-24T12:57:34;96244.28;;;14.26;44.99
77120;BME280;66073;47.730;9.352;2023-04-24T13:00:00;96244.44;;;13.99;43.52
77120;BME280;66073;47.730;9.352;2023-04-24T13:02:28;96236.59;;;14.64;43.51
77120;BME280;66073;47.730;9.352;2023-04-24T13:04:58;96232.94;;;14.29;42.99
77120;BME280;66073;47.730;9.352;2023-04-24T13:07:24;96242.16;;;14.36;42.53
77120;BME280;66073;47.730;9.352;2023-04-24T13:09:51;96226.72;;;14.99;42.60
77120;BME280;66073;47.730;9.352;2023-04-24T13:12:16;96238.50;;;15.46;42.60